Time;durP1;ratioP1;P1;durP2;ratioP2;P2;SDS_P1;SDS_P2;PMS_P1;PMS_P2;Temp;Humidity;BMP_temperature;BMP_pressure;BME280_temperature;BME280_humidity;BME280_pressure;Samples;Min_cycle;Max_cycle;Signal;HPM_P1;HPM_P2
2022/11/13 00:00:12;;;;;;;3.50;2.15;;;;;;;;;;4999242;28;88863;-69
2022/11/13 00:02:38;;;;;;;2.20;2.00;;;;;;;;;;4998997;28;88768;-68
2022/11/13 00:05:04;;;;;;;4.78;2.50;;;;;;;;;;4997924;28;88107;-68
2022/11/13 00:07:31;;;;;;;9.07;3.10;;;;;;;;;;4997363;28;88856;-68
2022/11/13 00:09:57;;;;;;;2.92;2.55;;;;;;;;;;4998279;28;89775;-69
2022/11/13 00:12:23;;;;;;;2.92;1.90;;;;;;;;;;4999384;28;89258;-69
2022/11/13 00:14:49;;;;;;;5.03;2.38;;;;;;;;;;4998471;28;89133;-69
2022/11/13 00:17:16;;;;;;;4.25;2.33;;;;;;;;;;5002690;28;90124;-69
2022/11/13 00:19:42;;;;;;;6.15;2.20;;;;;;;;;;4997161;28;88922;-69
2022/11/13 00:22:08;;;;;;;3.78;2.25;;;;;;;;;;4998010;28;89429;-69
2022/11/13 00:24:35;;;;;;;6.15;2.67;;;;;;;;;;4998165;28;89014;-70
2022/11/13 00:27:01;;;;;;;3.35;2.10;;;;;;;;;;4993480;28;88009;-70
2022/11/13 00:29:27;;;;;;;3.70;2.03;;;;;;;;;;4998214;28;88753;-69
2022/11/13 00:31:53;;;;;;;5.30;2.20;;;;;;;;;;4998116;28;89392;-69
2022/11/13 00:34:20;;;;;;;2.85;2.38;;;;;;;;;;4998564;28;88074;-69
2022/11/13 00:37:06;;;;;;;3.10;2.20;;;;;;;;;;4998503;28;88772;-70
2022/11/13 00:39:32;;;;;;;3.53;2.15;;;;;;;;;;5000861;28;88982;-70
2022/11/13 00:41:58;;;;;;;7.95;2.40;;;;;;;;;;4997259;28;88790;-70
2022/11/13 00:44:25;;;;;;;3.88;2.10;;;;;;;;;;4998990;28;89734;-70
2022/11/13 00:46:51;;;;;;;4.82;2.03;;;;;;;;;;4997437;28;87950;-71
2022/11/13 00:49:17;;;;;;;4.53;2.05;;;;;;;;;;4996251;28;88753;-73
2022/11/13 00:51:43;;;;;;;4.80;2.38;;;;;;;;;;4998905;28;89034;-73
2022/11/13 00:54:09;;;;;;;7.20;2.60;;;;;;;;;;4999081;28;88138;-72
2022/11/13 00:56:36;;;;;;;2.17;1.98;;;;;;;;;;5002042;28;88749;-71
2022/11/13 00:59:02;;;;;;;4.63;2.30;;;;;;;;;;4998575;28;90051;-72
2022/11/13 01:01:28;;;;;;;6.82;2.42;;;;;;;;;;5000511;28;87906;-71
2022/11/13 01:03:55;;;;;;;7.38;2.90;;;;;;;;;;5003664;28;89718;-71
2022/11/13 01:06:22;;;;;;;3.47;2.08;;;;;;;;;;4997207;28;88117;-70
2022/11/13 01:08:49;;;;;;;4.32;2.15;;;;;;;;;;4998021;28;88934;-69
2022/11/13 01:11:16;;;;;;;5.57;2.00;;;;;;;;;;4996531;28;91467;-70
2022/11/13 01:13:43;;;;;;;6.15;2.20;;;;;;;;;;4996342;28;88103;-70
2022/11/13 01:16:10;;;;;;;2.88;2.25;;;;;;;;;;4998086;28;88669;-70
2022/11/13 01:18:37;;;;;;;2.25;2.03;;;;;;;;;;4995653;28;90894;-69
2022/11/13 01:21:07;;;;;;;12.88;2.80;;;;;;;;;;4998605;28;88044;-72
2022/11/13 01:23:34;;;;;;;5.95;2.50;;;;;;;;;;5001333;28;89959;-74
2022/11/13 01:26:04;;;;;;;4.88;2.38;;;;;;;;;;4986623;28;87921;-74
2022/11/13 01:28:30;;;;;;;2.85;2.33;;;;;;;;;;4987255;28;89175;-74
2022/11/13 01:30:57;;;;;;;2.67;2.38;;;;;;;;;;4998079;28;89986;-72
2022/11/13 01:33:23;;;;;;;3.60;2.08;;;;;;;;;;4997255;28;88914;-74
2022/11/13 01:35:49;;;;;;;3.45;2.28;;;;;;;;;;4998739;28;89497;-74
2022/11/13 01:38:16;;;;;;;3.70;2.78;;;;;;;;;;4997050;28;88956;-73
2022/11/13 01:40:45;;;;;;;2.95;2.53;;;;;;;;;;4998775;28;88926;-74
2022/11/13 01:43:38;;;;;;;2.67;2.25;;;;;;;;;;4997301;28;89803;-74
2022/11/13 01:46:11;;;;;;;5.53;2.42;;;;;;;;;;4989390;28;89028;-74
2022/11/13 01:48:39;;;;;;;4.25;2.47;;;;;;;;;;4995638;28;88770;-73
2022/11/13 01:51:11;;;;;;;1.85;1.73;;;;;;;;;;4998054;28;88104;-74
2022/11/13 01:53:39;;;;;;;3.20;2.60;;;;;;;;;;4997140;28;88232;-74
2022/11/13 01:56:06;;;;;;;2.22;2.03;;;;;;;;;;4998410;28;89893;-74
2022/11/13 01:58:32;;;;;;;2.88;2.40;;;;;;;;;;4996755;28;89777;-74
2022/11/13 02:00:59;;;;;;;6.40;2.40;;;;;;;;;;4996379;28;88859;-74
2022/11/13 02:03:25;;;;;;;3.92;2.40;;;;;;;;;;4997503;28;89124;-69
2022/11/13 02:05:52;;;;;;;2.45;2.25;;;;;;;;;;5000085;28;88990;-69
2022/11/13 02:08:18;;;;;;;3.40;2.55;;;;;;;;;;4997247;28;88651;-69
2022/11/13 02:10:44;;;;;;;4.25;2.88;;;;;;;;;;4997058;28;89054;-70
2022/11/13 02:13:11;;;;;;;2.47;2.20;;;;;;;;;;4995360;28;88923;-72
2022/11/13 02:15:38;;;;;;;2.72;2.20;;;;;;;;;;4996001;28;88763;-71
2022/11/13 02:18:04;;;;;;;8.30;2.13;;;;;;;;;;5002749;28;90018;-72
2022/11/13 02:21:03;;;;;;;2.78;2.25;;;;;;;;;;4995531;28;88034;-72
2022/11/13 02:23:48;;;;;;;2.30;2.10;;;;;;;;;;4936600;28;90184;-70
2022/11/13 02:26:15;;;;;;;6.22;2.30;;;;;;;;;;4934592;28;88948;-70
2022/11/13 02:28:42;;;;;;;2.40;2.20;;;;;;;;;;4938620;28;88175;-72
2022/11/13 02:31:09;;;;;;;3.00;2.10;;;;;;;;;;4935843;28;89956;-72
2022/11/13 02:33:35;;;;;;;2.88;2.50;;;;;;;;;;4936322;28;88013;-70
2022/11/13 02:36:01;;;;;;;3.03;2.42;;;;;;;;;;4934947;28;88783;-71
2022/11/13 02:38:28;;;;;;;2.95;2.65;;;;;;;;;;4934515;28;89226;-71
2022/11/13 02:40:54;;;;;;;4.85;2.35;;;;;;;;;;4936373;28;88899;-71
2022/11/13 02:43:21;;;;;;;3.05;2.60;;;;;;;;;;4935517;28;89124;-71
2022/11/13 02:45:47;;;;;;;3.15;2.55;;;;;;;;;;4934715;28;90405;-71
2022/11/13 02:48:13;;;;;;;2.83;2.50;;;;;;;;;;4934895;28;89081;-71
2022/11/13 02:50:40;;;;;;;3.25;2.40;;;;;;;;;;4938058;28;89513;-71
2022/11/13 02:53:08;;;;;;;3.50;2.10;;;;;;;;;;4924702;28;88881;-71
2022/11/13 02:55:34;;;;;;;2.10;1.90;;;;;;;;;;4934721;28;89875;-70
2022/11/13 02:58:01;;;;;;;2.50;2.13;;;;;;;;;;4936118;28;89139;-70
2022/11/13 03:00:27;;;;;;;2.38;2.17;;;;;;;;;;4990176;28;88885;-72
2022/11/13 03:02:54;;;;;;;3.15;2.70;;;;;;;;;;5000003;28;88697;-69
2022/11/13 03:05:21;;;;;;;3.00;2.22;;;;;;;;;;5000861;28;89016;-69
2022/11/13 03:07:47;;;;;;;2.35;2.15;;;;;;;;;;5000465;28;88000;-69
2022/11/13 03:10:14;;;;;;;5.07;2.50;;;;;;;;;;4999738;28;88610;-68
2022/11/13 03:12:41;;;;;;;2.70;2.42;;;;;;;;;;5001762;28;89761;-68
2022/11/13 03:15:07;;;;;;;3.25;2.95;;;;;;;;;;4999374;28;89827;-68
2022/11/13 03:17:34;;;;;;;2.92;2.60;;;;;;;;;;5000357;28;90511;-68
2022/11/13 03:20:00;;;;;;;2.38;2.08;;;;;;;;;;4998529;28;88070;-68
2022/11/13 03:22:27;;;;;;;2.85;2.33;;;;;;;;;;5007007;28;88827;-69
2022/11/13 03:24:53;;;;;;;2.63;2.40;;;;;;;;;;5006444;28;90372;-69
2022/11/13 03:27:19;;;;;;;3.30;2.75;;;;;;;;;;4998547;28;88277;-69
2022/11/13 03:29:45;;;;;;;3.80;2.20;;;;;;;;;;4999016;28;88686;-69
2022/11/13 03:32:12;;;;;;;4.78;2.50;;;;;;;;;;5006946;28;88094;-69
2022/11/13 03:34:38;;;;;;;3.45;2.53;;;;;;;;;;5002763;28;87974;-73
2022/11/13 03:37:04;;;;;;;4.70;2.40;;;;;;;;;;4997623;28;90792;-73
2022/11/13 03:39:31;;;;;;;3.15;2.50;;;;;;;;;;4997616;28;88180;-74
2022/11/13 03:41:57;;;;;;;2.55;2.35;;;;;;;;;;4998869;28;89900;-73
2022/11/13 03:44:23;;;;;;;2.90;2.38;;;;;;;;;;4999841;28;89216;-73
2022/11/13 03:46:50;;;;;;;2.60;2.40;;;;;;;;;;4999257;28;89394;-73
2022/11/13 03:49:16;;;;;;;5.28;2.78;;;;;;;;;;4999125;28;89090;-72
2022/11/13 03:51:42;;;;;;;3.20;2.63;;;;;;;;;;4998721;28;88704;-72
2022/11/13 03:54:08;;;;;;;2.70;2.50;;;;;;;;;;4999057;28;89059;-71
2022/11/13 03:56:35;;;;;;;2.85;2.55;;;;;;;;;;5001850;28;88315;-71
2022/11/13 03:59:01;;;;;;;2.67;2.47;;;;;;;;;;4999177;28;88025;-72
2022/11/13 04:01:27;;;;;;;2.78;2.35;;;;;;;;;;4998415;28;88789;-72
2022/11/13 04:03:54;;;;;;;3.85;2.92;;;;;;;;;;5000357;28;89869;-72
2022/11/13 04:06:20;;;;;;;3.80;2.85;;;;;;;;;;4999537;28;88926;-72
2022/11/13 04:08:47;;;;;;;3.75;2.38;;;;;;;;;;4997817;28;88441;-72
2022/11/13 04:11:13;;;;;;;4.38;2.83;;;;;;;;;;4998225;28;88494;-72
2022/11/13 04:13:39;;;;;;;3.00;2.75;;;;;;;;;;4997947;28;88021;-72
2022/11/13 04:16:06;;;;;;;6.25;2.80;;;;;;;;;;5002698;28;90230;-72
2022/11/13 04:18:32;;;;;;;2.47;2.17;;;;;;;;;;4997466;28;87381;-73
2022/11/13 04:21:02;;;;;;;2.95;2.20;;;;;;;;;;4999619;28;88220;-73
2022/11/13 04:23:28;;;;;;;2.80;2.55;;;;;;;;;;4997426;28;89070;-72
2022/11/13 04:25:55;;;;;;;2.90;2.40;;;;;;;;;;4998734;28;88822;-72
2022/11/13 04:28:21;;;;;;;4.70;2.63;;;;;;;;;;4996335;28;89504;-72
2022/11/13 04:30:48;;;;;;;2.92;2.13;;;;;;;;;;4998983;28;89041;-69
2022/11/13 04:33:14;;;;;;;3.10;2.80;;;;;;;;;;4998373;28;88021;-71
2022/11/13 04:35:44;;;;;;;2.92;2.63;;;;;;;;;;4999025;28;89637;-71
2022/11/13 04:38:11;;;;;;;2.60;2.40;;;;;;;;;;5001765;28;89381;-70
2022/11/13 04:40:38;;;;;;;2.58;2.38;;;;;;;;;;4998550;28;90290;-69
2022/11/13 04:43:04;;;;;;;2.63;2.42;;;;;;;;;;4997562;28;88235;-71
2022/11/13 04:45:30;;;;;;;3.58;2.88;;;;;;;;;;4998247;28;88989;-71
2022/11/13 04:47:56;;;;;;;6.00;3.53;;;;;;;;;;5002856;28;88768;-72
2022/11/13 04:50:23;;;;;;;5.55;3.60;;;;;;;;;;4995695;28;89930;-72
2022/11/13 04:52:49;;;;;;;3.75;3.42;;;;;;;;;;4997313;28;89430;-73
2022/11/13 04:55:16;;;;;;;4.47;3.00;;;;;;;;;;4994861;28;89356;-73
2022/11/13 04:57:42;;;;;;;8.38;3.20;;;;;;;;;;4992337;28;89906;-73
2022/11/13 05:00:09;;;;;;;4.55;3.13;;;;;;;;;;5001130;28;88230;-73
2022/11/13 05:02:35;;;;;;;6.25;3.20;;;;;;;;;;4998093;28;89368;-73
2022/11/13 05:05:02;;;;;;;3.47;2.88;;;;;;;;;;4998305;28;87999;-74
2022/11/13 05:07:30;;;;;;;4.38;3.15;;;;;;;;;;4999688;28;88467;-72
2022/11/13 05:09:56;;;;;;;4.22;3.20;;;;;;;;;;4997434;28;89956;-73
2022/11/13 05:12:23;;;;;;;3.30;2.90;;;;;;;;;;4998954;28;88120;-73
2022/11/13 05:14:49;;;;;;;4.50;3.45;;;;;;;;;;4996741;28;89048;-71
2022/11/13 05:17:15;;;;;;;4.10;3.10;;;;;;;;;;4999383;28;89023;-70
2022/11/13 05:19:42;;;;;;;4.28;3.00;;;;;;;;;;4995731;28;88027;-71
2022/11/13 05:22:08;;;;;;;3.40;2.70;;;;;;;;;;4998351;28;88834;-70
2022/11/13 05:24:34;;;;;;;8.65;3.17;;;;;;;;;;4997380;28;88125;-70
2022/11/13 05:27:00;;;;;;;4.57;3.03;;;;;;;;;;4998340;28;88715;-70
2022/11/13 05:29:27;;;;;;;5.22;3.10;;;;;;;;;;4997529;28;91698;-70
2022/11/13 05:31:53;;;;;;;3.72;2.85;;;;;;;;;;4997591;28;88741;-70
2022/11/13 05:34:19;;;;;;;4.82;2.92;;;;;;;;;;4998099;28;88341;-70
2022/11/13 05:36:45;;;;;;;4.82;3.05;;;;;;;;;;4997646;28;90114;-73
2022/11/13 05:39:12;;;;;;;3.83;3.00;;;;;;;;;;4997102;28;88951;-71
2022/11/13 05:41:38;;;;;;;7.07;3.17;;;;;;;;;;4997757;28;90501;-71
2022/11/13 05:44:04;;;;;;;3.17;2.72;;;;;;;;;;5001796;28;88645;-70
2022/11/13 05:46:30;;;;;;;6.38;3.40;;;;;;;;;;4997068;28;88700;-71
2022/11/13 05:49:00;;;;;;;6.40;3.30;;;;;;;;;;4996082;28;88035;-71
2022/11/13 05:51:31;;;;;;;3.72;3.20;;;;;;;;;;4993441;28;88350;-71
2022/11/13 05:53:57;;;;;;;5.68;3.00;;;;;;;;;;4997275;28;88761;-71
2022/11/13 05:56:25;;;;;;;8.70;3.40;;;;;;;;;;5006083;28;88351;-71
2022/11/13 05:58:52;;;;;;;4.80;3.10;;;;;;;;;;5009221;28;88261;-71
2022/11/13 06:01:22;;;;;;;10.25;3.58;;;;;;;;;;4998649;28;88053;-71
2022/11/13 06:03:49;;;;;;;6.70;3.25;;;;;;;;;;4996113;28;90888;-71
2022/11/13 06:06:17;;;;;;;14.27;3.40;;;;;;;;;;5002271;28;87960;-71
2022/11/13 06:08:43;;;;;;;3.53;2.75;;;;;;;;;;4998007;28;88879;-71
2022/11/13 06:11:11;;;;;;;5.03;3.10;;;;;;;;;;4994715;28;89185;-73
2022/11/13 06:13:37;;;;;;;4.57;2.92;;;;;;;;;;4995575;28;89718;-74
2022/11/13 06:16:05;;;;;;;4.25;3.20;;;;;;;;;;4997813;28;90443;-75
2022/11/13 06:18:32;;;;;;;3.40;2.60;;;;;;;;;;4995478;28;88228;-74
2022/11/13 06:21:00;;;;;;;6.82;2.63;;;;;;;;;;4997385;28;88751;-73
2022/11/13 06:23:26;;;;;;;8.35;3.35;;;;;;;;;;4997792;28;89050;-69
2022/11/13 06:25:58;;;;;;;7.57;3.20;;;;;;;;;;4999878;28;88034;-69
2022/11/13 06:28:24;;;;;;;3.50;3.03;;;;;;;;;;4996530;28;90741;-71
2022/11/13 06:30:51;;;;;;;4.50;3.33;;;;;;;;;;4996208;28;88913;-72
2022/11/13 06:33:17;;;;;;;6.78;2.80;;;;;;;;;;4995673;28;88798;-71
2022/11/13 06:35:44;;;;;;;4.57;3.28;;;;;;;;;;4997235;28;88968;-71
2022/11/13 06:38:10;;;;;;;6.32;3.15;;;;;;;;;;4997862;28;88068;-72
2022/11/13 06:40:36;;;;;;;6.38;3.00;;;;;;;;;;4995322;28;89762;-72
2022/11/13 06:43:03;;;;;;;4.53;2.65;;;;;;;;;;4997254;28;89176;-72
2022/11/13 06:45:30;;;;;;;3.92;2.80;;;;;;;;;;4995404;28;87700;-72
2022/11/13 06:47:56;;;;;;;6.30;2.85;;;;;;;;;;4999756;28;88023;-72
2022/11/13 06:50:23;;;;;;;4.13;2.90;;;;;;;;;;4996781;28;88098;-72
2022/11/13 06:52:49;;;;;;;3.70;2.70;;;;;;;;;;4996308;28;90373;-72
2022/11/13 06:55:15;;;;;;;5.35;2.63;;;;;;;;;;4995730;28;90004;-72
2022/11/13 06:57:41;;;;;;;3.33;2.65;;;;;;;;;;4989509;28;88293;-73
2022/11/13 07:00:08;;;;;;;6.00;3.00;;;;;;;;;;4996802;28;89862;-75
2022/11/13 07:02:34;;;;;;;4.15;3.08;;;;;;;;;;4998346;28;90036;-75
2022/11/13 07:05:00;;;;;;;3.15;2.78;;;;;;;;;;5002072;28;88520;-75
2022/11/13 07:07:27;;;;;;;3.75;3.13;;;;;;;;;;5000341;28;88881;-75
2022/11/13 07:09:53;;;;;;;3.85;3.17;;;;;;;;;;5013289;28;88933;-74
2022/11/13 07:12:19;;;;;;;3.47;2.85;;;;;;;;;;4996588;28;89386;-74
2022/11/13 07:14:45;;;;;;;3.20;2.90;;;;;;;;;;4996466;28;88966;-75
2022/11/13 07:17:12;;;;;;;5.20;3.28;;;;;;;;;;4996407;28;88814;-73
2022/11/13 07:19:38;;;;;;;3.45;3.08;;;;;;;;;;5001844;28;90442;-73
2022/11/13 07:22:04;;;;;;;4.53;2.72;;;;;;;;;;5001205;28;89916;-73
2022/11/13 07:24:30;;;;;;;4.22;2.92;;;;;;;;;;4990269;28;88014;-73
2022/11/13 07:26:57;;;;;;;5.03;2.80;;;;;;;;;;4989054;28;88829;-73
2022/11/13 07:29:23;;;;;;;8.45;2.85;;;;;;;;;;4994907;28;90494;-73
2022/11/13 07:31:49;;;;;;;24.88;3.30;;;;;;;;;;4999280;28;88034;-72
2022/11/13 07:34:16;;;;;;;4.47;2.65;;;;;;;;;;4995835;28;88576;-71
2022/11/13 07:36:42;;;;;;;4.28;2.83;;;;;;;;;;4995468;28;89136;-72
2022/11/13 07:39:08;;;;;;;8.18;2.90;;;;;;;;;;4995805;28;89862;-71
2022/11/13 07:41:34;;;;;;;7.28;3.00;;;;;;;;;;4994582;28;90094;-72
2022/11/13 07:44:01;;;;;;;4.65;3.20;;;;;;;;;;4997037;28;88153;-72
2022/11/13 07:46:33;;;;;;;2.95;2.45;;;;;;;;;;4996888;28;88688;-72
2022/11/13 07:48:59;;;;;;;4.85;2.88;;;;;;;;;;4983918;28;89374;-73
2022/11/13 07:51:25;;;;;;;4.78;2.78;;;;;;;;;;4997507;28;88733;-72
2022/11/13 07:53:51;;;;;;;5.22;3.10;;;;;;;;;;4993822;28;89811;-70
2022/11/13 07:56:18;;;;;;;3.83;2.85;;;;;;;;;;5001510;28;87994;-71
2022/11/13 07:58:48;;;;;;;;;;;;;;;;;;5000171;28;90334;-72
2022/11/13 08:01:14;;;;;;;5.07;2.80;;;;;;;;;;4999539;28;118567;-73
2022/11/13 08:03:41;;;;;;;3.70;2.67;;;;;;;;;;4999287;28;88073;-75
2022/11/13 08:06:07;;;;;;;7.15;2.95;;;;;;;;;;4996836;28;90373;-72
2022/11/13 08:08:34;;;;;;;10.85;2.72;;;;;;;;;;4999196;28;89712;-72
2022/11/13 08:11:04;;;;;;;5.53;2.95;;;;;;;;;;4998548;28;88286;-76
2022/11/13 08:13:30;;;;;;;;;;;;;;;;;;5003615;28;89307;-77
2022/11/13 08:16:00;;;;;;;6.25;2.92;;;;;;;;;;4999627;28;118980;-76
2022/11/13 08:18:27;;;;;;;4.97;2.45;;;;;;;;;;4999271;28;88002;-76
2022/11/13 08:20:54;;;;;;;9.13;2.70;;;;;;;;;;4995116;28;90043;-76
2022/11/13 08:23:20;;;;;;;21.20;3.28;;;;;;;;;;4999556;28;88947;-76
2022/11/13 08:25:46;;;;;;;3.17;2.60;;;;;;;;;;4997504;28;88371;-76
2022/11/13 08:28:13;;;;;;;3.80;2.80;;;;;;;;;;5013960;28;89021;-74
2022/11/13 08:30:41;;;;;;;8.32;2.50;;;;;;;;;;4997404;28;88853;-73
2022/11/13 08:33:07;;;;;;;3.28;2.58;;;;;;;;;;5010711;28;90939;-75
2022/11/13 08:35:34;;;;;;;8.45;2.67;;;;;;;;;;5000155;28;89023;-76
2022/11/13 08:38:01;;;;;;;4.90;2.90;;;;;;;;;;5004858;28;88718;-75
2022/11/13 08:40:28;;;;;;;4.75;2.42;;;;;;;;;;5000232;28;89050;-76
2022/11/13 08:43:01;;;;;;;11.32;2.60;;;;;;;;;;4997998;28;88422;-75
2022/11/13 08:45:28;;;;;;;4.15;2.35;;;;;;;;;;4999468;28;88862;-75
2022/11/13 08:47:58;;;;;;;21.42;3.00;;;;;;;;;;5003105;28;88172;-75
2022/11/13 08:50:24;;;;;;;4.22;2.63;;;;;;;;;;4998713;28;88973;-74
2022/11/13 08:52:57;;;;;;;4.65;2.75;;;;;;;;;;4997835;28;88550;-76
2022/11/13 08:55:23;;;;;;;4.97;2.63;;;;;;;;;;5003797;28;88948;-76
2022/11/13 08:57:50;;;;;;;4.78;2.47;;;;;;;;;;5001550;28;88000;-76
2022/11/13 09:00:16;;;;;;;4.05;2.55;;;;;;;;;;4997294;28;88979;-75
2022/11/13 09:02:43;;;;;;;5.95;2.78;;;;;;;;;;4993199;28;89390;-75
2022/11/13 09:05:09;;;;;;;6.30;2.42;;;;;;;;;;5004946;28;88802;-75
2022/11/13 09:07:35;;;;;;;3.38;2.40;;;;;;;;;;4998250;28;89436;-75
2022/11/13 09:10:02;;;;;;;2.85;2.45;;;;;;;;;;5002332;28;88058;-76
2022/11/13 09:12:29;;;;;;;6.20;2.72;;;;;;;;;;5019549;28;89096;-76
2022/11/13 09:14:55;;;;;;;4.20;2.42;;;;;;;;;;5007595;28;88905;-76
2022/11/13 09:17:21;;;;;;;2.88;2.22;;;;;;;;;;4995340;28;88113;-75
2022/11/13 09:19:48;;;;;;;2.45;1.95;;;;;;;;;;5000209;28;88797;-73
2022/11/13 09:22:15;;;;;;;3.95;2.50;;;;;;;;;;4999367;28;88090;-73
2022/11/13 09:24:41;;;;;;;4.63;2.60;;;;;;;;;;4997097;28;89846;-77
2022/11/13 09:27:08;;;;;;;4.53;2.40;;;;;;;;;;4998279;28;90042;-78
2022/11/13 09:29:34;;;;;;;5.07;2.05;;;;;;;;;;4998552;28;88083;-77
2022/11/13 09:32:01;;;;;;;14.15;2.33;;;;;;;;;;4998120;28;88666;-77
2022/11/13 09:34:27;;;;;;;2.85;1.90;;;;;;;;;;5011882;28;89111;-77
2022/11/13 09:36:53;;;;;;;3.63;2.13;;;;;;;;;;5004946;28;88888;-78
2022/11/13 09:39:20;;;;;;;4.50;2.40;;;;;;;;;;4996958;28;88061;-78
2022/11/13 09:41:52;;;;;;;4.05;2.40;;;;;;;;;;4998585;28;89487;-78
2022/11/13 09:44:35;;;;;;;2.40;1.80;;;;;;;;;;4998349;28;88817;-78
2022/11/13 09:47:01;;;;;;;4.30;2.22;;;;;;;;;;4995820;28;90035;-78
2022/11/13 09:49:33;;;;;;;4.00;2.20;;;;;;;;;;4991903;28;88161;-78
2022/11/13 09:52:02;;;;;;;4.55;2.47;;;;;;;;;;4985576;28;88828;-78
2022/11/13 09:54:32;;;;;;;6.10;2.10;;;;;;;;;;5014145;28;89390;-77
2022/11/13 09:57:21;;;;;;;3.85;2.08;;;;;;;;;;5009238;28;89146;-79
2022/11/13 09:59:58;;;;;;;7.20;2.50;;;;;;;;;;4998663;28;89297;-76
2022/11/13 10:02:43;;;;;;;3.72;1.90;;;;;;;;;;4998185;28;88289;-71
2022/11/13 10:05:30;;;;;;;3.33;2.20;;;;;;;;;;4984937;28;88915;-72
2022/11/13 10:08:02;;;;;;;13.98;2.38;;;;;;;;;;5008089;28;89028;-72
2022/11/13 10:10:32;;;;;;;6.57;1.98;;;;;;;;;;4997870;28;88904;-71
2022/11/13 10:12:59;;;;;;;5.03;1.83;;;;;;;;;;4978408;28;89553;-72
2022/11/13 10:15:25;;;;;;;3.58;2.00;;;;;;;;;;4988429;28;89063;-72
2022/11/13 10:18:04;;;;;;;15.48;1.90;;;;;;;;;;5005970;28;88082;-72
2022/11/13 10:20:30;;;;;;;4.85;2.25;;;;;;;;;;4998068;28;90235;-71
2022/11/13 10:23:14;;;;;;;5.68;2.80;;;;;;;;;;4997646;28;89340;-72
2022/11/13 10:25:41;;;;;;;5.75;2.10;;;;;;;;;;4999553;28;89048;-71
2022/11/13 10:28:10;;;;;;;3.78;2.08;;;;;;;;;;5013788;28;88275;-72
2022/11/13 10:30:57;;;;;;;3.70;1.70;;;;;;;;;;5017621;28;89936;-72
2022/11/13 10:33:24;;;;;;;5.43;1.95;;;;;;;;;;5009884;28;89716;-71
2022/11/13 10:36:07;;;;;;;7.28;2.05;;;;;;;;;;4994742;28;90491;-72
2022/11/13 10:38:39;;;;;;;9.48;2.50;;;;;;;;;;5002544;28;89536;-72
2022/11/13 10:41:13;;;;;;;5.38;1.90;;;;;;;;;;4997904;28;89769;-72
2022/11/13 10:43:58;;;;;;;6.53;1.88;;;;;;;;;;4997619;28;89013;-71
2022/11/13 10:46:28;;;;;;;11.07;1.95;;;;;;;;;;4994885;28;88127;-71
2022/11/13 10:48:54;;;;;;;;;;;;;;;;;;5001303;28;89837;-71
2022/11/13 10:51:20;;;;;;;4.75;2.22;;;;;;;;;;4997223;28;118352;-71
2022/11/13 10:53:47;;;;;;;2.35;1.63;;;;;;;;;;4992263;28;89138;-71
2022/11/13 10:56:19;;;;;;;3.20;1.98;;;;;;;;;;4994428;28;89059;-71
2022/11/13 10:58:58;;;;;;;7.65;2.00;;;;;;;;;;4997925;28;88634;-79
2022/11/13 11:01:24;;;;;;;3.00;1.77;;;;;;;;;;4996309;28;89750;-78
2022/11/13 11:03:50;;;;;;;4.40;1.73;;;;;;;;;;4997001;28;89172;-78
2022/11/13 11:06:17;;;;;;;3.60;2.00;;;;;;;;;;4995534;28;89262;-76
2022/11/13 11:08:43;;;;;;;4.38;2.30;;;;;;;;;;5007162;28;89820;-74
2022/11/13 11:14:15;;;;;;;8.25;2.25;;;;;;;;;;4993714;28;88751;-74
2022/11/13 11:16:43;;;;;;;5.88;2.22;;;;;;;;;;4996792;28;90076;-73
2022/11/13 11:19:11;;;;;;;5.05;1.88;;;;;;;;;;4996121;28;87703;-74
2022/11/13 11:21:40;;;;;;;7.95;2.53;;;;;;;;;;4999047;28;88356;-73
2022/11/13 11:24:10;;;;;;;4.72;2.53;;;;;;;;;;4999733;28;91558;-73
2022/11/13 11:26:37;;;;;;;3.03;1.90;;;;;;;;;;4996930;28;89528;-73
2022/11/13 11:29:22;;;;;;;6.57;2.00;;;;;;;;;;5000922;28;90434;-74
2022/11/13 11:31:54;;;;;;;3.85;2.00;;;;;;;;;;4992838;28;91610;-74
2022/11/13 11:34:37;;;;;;;5.30;2.20;;;;;;;;;;4990176;28;88264;-73
2022/11/13 11:37:17;;;;;;;5.07;2.28;;;;;;;;;;4998977;28;89350;-74
2022/11/13 11:39:43;;;;;;;2.35;2.03;;;;;;;;;;5000774;28;88023;-74
2022/11/13 11:42:24;;;;;;;3.17;2.00;;;;;;;;;;4999816;28;88715;-73
2022/11/13 11:44:54;;;;;;;4.32;2.10;;;;;;;;;;4989101;28;88436;-74
2022/11/13 11:47:20;;;;;;;3.63;2.25;;;;;;;;;;5015594;28;88727;-72
2022/11/13 11:49:47;;;;;;;4.20;2.10;;;;;;;;;;5019991;28;90550;-73
2022/11/13 11:52:28;;;;;;;2.95;2.15;;;;;;;;;;5019805;28;90847;-73
2022/11/13 11:55:01;;;;;;;4.30;2.30;;;;;;;;;;5001541;28;88922;-73
2022/11/13 11:57:42;;;;;;;3.33;2.03;;;;;;;;;;5001517;28;88896;-72
2022/11/13 12:00:13;;;;;;;2.53;2.10;;;;;;;;;;4986301;28;89730;-73
2022/11/13 12:03:46;;;;;;;180.85;14.55;;;;;;;;;;5055758;27;86462;-63
2022/11/13 12:06:21;;;;;;;11.23;7.13;;;;;;;;;;5032563;28;89029;-63
2022/11/13 12:08:55;;;;;;;14.32;8.07;;;;;;;;;;5035852;27;88440;-63
2022/11/13 12:11:24;;;;;;;10.88;7.40;;;;;;;;;;5034617;28;87751;-62
2022/11/13 12:13:51;;;;;;;11.55;6.40;;;;;;;;;;5035437;27;87889;-63
2022/11/13 12:16:36;;;;;;;16.98;6.40;;;;;;;;;;5034537;27;87316;-64
2022/11/13 12:19:14;;;;;;;20.38;6.53;;;;;;;;;;5045385;27;87100;-62
2022/11/13 12:21:46;;;;;;;16.33;6.78;;;;;;;;;;5055616;27;87805;-62
2022/11/13 12:24:30;;;;;;;9.48;6.15;;;;;;;;;;5053983;27;88321;-62
2022/11/13 12:27:08;;;;;;;11.85;6.47;;;;;;;;;;5043577;27;89210;-64
2022/11/13 12:29:43;;;;;;;7.82;5.55;;;;;;;;;;5017903;27;89878;-63
2022/11/13 12:32:36;;;;;;;7.72;4.93;;;;;;;;;;5033002;27;88387;-63
2022/11/13 12:35:19;;;;;;;5.75;4.75;;;;;;;;;;5026301;27;87831;-63
2022/11/13 12:37:50;;;;;;;6.82;4.47;;;;;;;;;;5047671;27;87353;-63
2022/11/13 12:40:35;;;;;;;9.20;4.18;;;;;;;;;;5033807;28;87451;-62
2022/11/13 12:43:27;;;;;;;15.15;5.15;;;;;;;;;;5023905;27;87727;-63
2022/11/13 12:45:55;;;;;;;9.18;5.82;;;;;;;;;;5047645;27;87938;-63
2022/11/13 12:48:26;;;;;;;8.20;4.75;;;;;;;;;;5030186;27;88772;-63
2022/11/13 12:51:00;;;;;;;5.65;3.85;;;;;;;;;;5027204;28;87245;-63
2022/11/13 12:53:28;;;;;;;7.30;4.35;;;;;;;;;;5028856;27;87485;-62
2022/11/13 12:55:59;;;;;;;6.78;4.15;;;;;;;;;;5032427;27;88241;-63
2022/11/13 12:58:27;;;;;;;8.02;4.75;;;;;;;;;;5029687;27;87998;-63
2022/11/13 13:00:57;;;;;;;8.48;5.50;;;;;;;;;;5028935;27;87949;-64
2022/11/13 13:03:23;;;;;;;;;;;;;;;;;;5035778;27;87888;-62
2022/11/13 13:06:19;;;;;;;7.88;5.28;;;;;;;;;;5050789;27;117556;-63
2022/11/13 13:08:50;;;;;;;7.82;4.32;;;;;;;;;;5032108;27;87617;-63
2022/11/13 13:11:31;;;;;;;6.95;3.85;;;;;;;;;;5036193;27;87996;-63
2022/11/13 13:14:13;;;;;;;6.82;4.50;;;;;;;;;;5021731;27;88532;-63
2022/11/13 13:16:39;;;;;;;6.32;4.30;;;;;;;;;;5013598;28;88624;-64
2022/11/13 13:19:07;;;;;;;6.38;4.45;;;;;;;;;;5021175;28;88692;-62
2022/11/13 13:21:43;;;;;;;11.45;4.05;;;;;;;;;;5021007;28;87736;-62
2022/11/13 13:24:25;;;;;;;7.10;4.30;;;;;;;;;;5022252;28;88850;-62
2022/11/13 13:26:51;;;;;;;8.82;4.43;;;;;;;;;;5034093;27;87577;-63
2022/11/13 13:29:22;;;;;;;10.85;7.13;;;;;;;;;;5040159;27;88098;-62
2022/11/13 13:32:04;;;;;;;13.70;8.93;;;;;;;;;;5040581;27;87857;-63
2022/11/13 13:34:52;;;;;;;6.63;4.60;;;;;;;;;;5028269;28;87342;-62
2022/11/13 13:37:24;;;;;;;6.10;4.40;;;;;;;;;;5028631;28;87820;-63
2022/11/13 13:39:57;;;;;;;5.88;3.70;;;;;;;;;;5037160;27;87294;-63
2022/11/13 13:42:32;;;;;;;7.03;3.80;;;;;;;;;;5019173;28;87528;-63
2022/11/13 13:45:17;;;;;;;7.57;4.05;;;;;;;;;;5017326;28;87877;-63
2022/11/13 13:47:51;;;;;;;9.35;3.53;;;;;;;;;;5032110;28;87400;-63
2022/11/13 13:50:23;;;;;;;9.63;4.00;;;;;;;;;;5040651;27;87823;-63
2022/11/13 13:52:49;;;;;;;8.50;3.17;;;;;;;;;;5040643;27;87883;-62
2022/11/13 13:55:23;;;;;;;4.85;2.90;;;;;;;;;;5035010;27;88518;-62
2022/11/13 13:57:50;;;;;;;9.52;3.40;;;;;;;;;;5029198;27;88688;-63
2022/11/13 14:00:17;;;;;;;7.78;3.45;;;;;;;;;;5018548;28;87348;-63
2022/11/13 14:02:45;;;;;;;4.78;3.13;;;;;;;;;;5019476;28;87499;-63
2022/11/13 14:05:23;;;;;;;4.07;3.00;;;;;;;;;;5018938;28;91463;-63
2022/11/13 14:07:49;;;;;;;6.88;3.47;;;;;;;;;;5019165;28;87595;-64
2022/11/13 14:10:17;;;;;;;6.47;3.35;;;;;;;;;;5020464;28;88515;-63
2022/11/13 14:12:44;;;;;;;5.22;3.20;;;;;;;;;;5021223;28;87904;-63
2022/11/13 14:15:27;;;;;;;4.50;3.17;;;;;;;;;;5027942;27;87698;-63
2022/11/13 14:18:04;;;;;;;8.57;3.45;;;;;;;;;;5016130;28;87467;-63
2022/11/13 14:20:46;;;;;;;53.80;7.35;;;;;;;;;;5029261;27;87022;-62
2022/11/13 14:23:16;;;;;;;15.43;3.63;;;;;;;;;;5023552;27;87804;-63
2022/11/13 14:25:43;;;;;;;8.20;2.80;;;;;;;;;;5015720;28;88160;-63
2022/11/13 14:28:14;;;;;;;7.65;3.13;;;;;;;;;;5017017;28;88847;-63
2022/11/13 14:30:40;;;;;;;7.65;2.80;;;;;;;;;;5020022;28;88529;-64
2022/11/13 14:33:08;;;;;;;6.97;3.75;;;;;;;;;;5019984;28;89323;-63
2022/11/13 14:35:36;;;;;;;4.93;3.30;;;;;;;;;;5016185;28;88438;-62
2022/11/13 14:38:02;;;;;;;4.57;3.28;;;;;;;;;;5018398;28;90446;-63
2022/11/13 14:40:30;;;;;;;4.40;2.88;;;;;;;;;;5022581;28;87856;-61
2022/11/13 14:42:57;;;;;;;3.30;3.00;;;;;;;;;;5012642;28;87638;-62
2022/11/13 14:45:24;;;;;;;7.68;2.95;;;;;;;;;;5016122;28;87833;-62
2022/11/13 14:47:58;;;;;;;3.97;2.72;;;;;;;;;;5018480;28;87304;-62
2022/11/13 14:50:26;;;;;;;4.30;2.80;;;;;;;;;;5024129;28;87575;-62
2022/11/13 14:52:56;;;;;;;4.32;2.95;;;;;;;;;;5019603;27;88310;-63
2022/11/13 14:55:34;;;;;;;3.60;2.90;;;;;;;;;;5017643;28;87528;-63
2022/11/13 14:58:01;;;;;;;3.92;2.85;;;;;;;;;;5018930;28;87527;-64